createdAt,value
2023-01-21T00:00:45.884Z,1012.82
2023-01-21T00:01:45.348Z,1012.84
2023-01-21T00:02:45.333Z,1012.85
2023-01-21T00:03:45.407Z,1012.87
2023-01-21T00:04:45.319Z,1012.88
2023-01-21T00:05:45.305Z,1012.90
2023-01-21T00:06:45.307Z,1012.92
2023-01-21T00:07:45.301Z,1012.93
2023-01-21T00:08:45.305Z,1012.95
2023-01-21T00:09:45.278Z,1012.97
2023-01-21T00:10:45.256Z,1012.98
2023-01-21T00:11:45.246Z,1013.00
2023-01-21T00:12:45.243Z,1013.01
2023-01-21T00:13:45.247Z,1013.03
2023-01-21T00:14:45.215Z,1013.04
2023-01-21T00:15:45.280Z,1013.06
2023-01-21T00:16:45.235Z,1013.08
2023-01-21T00:17:45.208Z,1013.09
2023-01-21T00:18:45.175Z,1013.10
2023-01-21T00:19:45.164Z,1013.11
2023-01-21T00:20:45.148Z,1013.11
2023-01-21T00:21:45.119Z,1013.14
2023-01-21T00:22:45.132Z,1013.15
2023-01-21T00:23:45.107Z,1013.19
2023-01-21T00:24:45.115Z,1013.22
2023-01-21T00:25:45.108Z,1013.25
2023-01-21T00:26:45.105Z,1013.26
2023-01-21T00:27:45.066Z,1013.29
2023-01-21T00:28:45.090Z,1013.31
2023-01-21T00:29:45.076Z,1013.33
2023-01-21T00:30:45.152Z,1013.34
2023-01-21T00:31:45.150Z,1013.37
2023-01-21T00:32:45.065Z,1013.39
2023-01-21T00:33:45.012Z,1013.41
2023-01-21T00:34:45.018Z,1013.43
2023-01-21T00:35:45.006Z,1013.43
2023-01-21T00:36:44.991Z,1013.44
2023-01-21T00:37:44.976Z,1013.45
2023-01-21T00:38:44.985Z,1013.48
2023-01-21T00:39:44.957Z,1013.50
2023-01-21T00:40:44.969Z,1013.52
2023-01-21T00:41:44.935Z,1013.54
2023-01-21T00:42:44.925Z,1013.54
2023-01-21T00:43:44.914Z,1013.55
2023-01-21T00:44:44.922Z,1013.56
2023-01-21T00:45:44.895Z,1013.57
2023-01-21T00:46:44.893Z,1013.60
2023-01-21T00:47:44.868Z,1013.62
2023-01-21T00:48:44.860Z,1013.64
2023-01-21T00:49:44.880Z,1013.65
2023-01-21T00:50:44.938Z,1013.67
2023-01-21T00:51:44.834Z,1013.68
2023-01-21T00:52:44.823Z,1013.69
2023-01-21T00:53:44.811Z,1013.70
2023-01-21T00:54:44.811Z,1013.73
2023-01-21T00:55:44.796Z,1013.73
2023-01-21T00:56:44.793Z,1013.75
2023-01-21T00:57:44.782Z,1013.77
2023-01-21T00:58:44.776Z,1013.78
2023-01-21T00:59:44.765Z,1013.79
2023-01-21T01:00:44.762Z,1013.81
2023-01-21T01:01:44.739Z,1013.82
2023-01-21T01:02:44.754Z,1013.83
2023-01-21T01:03:44.711Z,1013.83
2023-01-21T01:04:44.705Z,1013.84
2023-01-21T01:05:44.680Z,1013.85
2023-01-21T01:06:44.714Z,1013.86
2023-01-21T01:07:44.672Z,1013.87
2023-01-21T01:08:44.690Z,1013.87
2023-01-21T01:09:44.658Z,1013.88
2023-01-21T01:10:44.645Z,1013.88
2023-01-21T01:11:44.642Z,1013.89
2023-01-21T01:12:44.647Z,1013.90
2023-01-21T01:13:44.612Z,1013.91
2023-01-21T01:14:44.610Z,1013.91
2023-01-21T01:15:44.616Z,1013.93
2023-01-21T01:16:44.574Z,1013.95
2023-01-21T01:17:44.572Z,1013.96
2023-01-21T01:18:44.581Z,1013.97
2023-01-21T01:19:44.562Z,1013.98
2023-01-21T01:20:44.543Z,1013.99
2023-01-21T01:21:44.549Z,1013.99
2023-01-21T01:22:44.538Z,1014.00
2023-01-21T01:23:44.524Z,1014.02
2023-01-21T01:24:44.524Z,1014.04
2023-01-21T01:25:44.498Z,1014.05
2023-01-21T01:26:44.532Z,1014.05
2023-01-21T01:27:44.462Z,1014.06
2023-01-21T01:28:44.473Z,1014.06
2023-01-21T01:29:44.446Z,1014.07
2023-01-21T01:30:44.517Z,1014.08
2023-01-21T01:31:44.495Z,1014.09
2023-01-21T01:32:44.405Z,1014.11
2023-01-21T01:33:44.617Z,1014.12
2023-01-21T01:34:44.395Z,1014.12
2023-01-21T01:35:44.380Z,1014.13
2023-01-21T01:36:44.376Z,1014.15
2023-01-21T01:37:44.358Z,1014.15
2023-01-21T01:38:44.385Z,1014.16
2023-01-21T01:39:44.342Z,1014.16
2023-01-21T01:40:44.338Z,1014.17
2023-01-21T01:41:44.341Z,1014.18
2023-01-21T01:42:44.315Z,1014.17
2023-01-21T01:43:44.317Z,1014.19
2023-01-21T01:44:44.309Z,1014.18
2023-01-21T01:45:44.280Z,1014.19
2023-01-21T01:46:44.378Z,1014.20
2023-01-21T01:47:44.264Z,1014.24
2023-01-21T01:48:44.258Z,1014.26
2023-01-21T01:49:44.257Z,1014.26
2023-01-21T01:50:44.293Z,1014.26
2023-01-21T01:51:44.220Z,1014.27
2023-01-21T01:52:44.222Z,1014.28
2023-01-21T01:53:44.210Z,1014.29
2023-01-21T01:54:44.220Z,1014.29
2023-01-21T01:55:44.211Z,1014.30
2023-01-21T01:56:44.187Z,1014.31
2023-01-21T01:57:44.163Z,1014.34
2023-01-21T01:58:44.151Z,1014.35
2023-01-21T01:59:44.210Z,1014.38
2023-01-21T02:00:44.165Z,1014.40
2023-01-21T02:01:44.157Z,1014.42
2023-01-21T02:02:44.160Z,1014.43
2023-01-21T02:03:44.132Z,1014.45
2023-01-21T02:04:44.113Z,1014.44
2023-01-21T02:05:44.095Z,1014.45
2023-01-21T02:06:44.096Z,1014.46
2023-01-21T02:07:44.078Z,1014.46
2023-01-21T02:08:44.055Z,1014.47
2023-01-21T02:09:44.044Z,1014.49
2023-01-21T02:10:44.052Z,1014.51
2023-01-21T02:11:44.033Z,1014.54
2023-01-21T02:12:44.027Z,1014.56
2023-01-21T02:13:44.011Z,1014.58
2023-01-21T02:14:44.017Z,1014.62
2023-01-21T02:15:44.004Z,1014.64
2023-01-21T02:16:43.979Z,1014.67
2023-01-21T02:17:50.601Z,1014.66
2023-01-21T02:18:43.979Z,1014.65
2023-01-21T02:19:43.953Z,1014.67
2023-01-21T02:20:43.971Z,1014.68
2023-01-21T02:21:43.928Z,1014.67
2023-01-21T02:22:43.943Z,1014.68
2023-01-21T02:23:43.909Z,1014.72
2023-01-21T02:24:43.904Z,1014.71
2023-01-21T02:25:43.893Z,1014.72
2023-01-21T02:26:43.895Z,1014.72
2023-01-21T02:27:43.867Z,1014.73
2023-01-21T02:28:43.890Z,1014.73
2023-01-21T02:29:43.871Z,1014.75
2023-01-21T02:30:43.887Z,1014.74
2023-01-21T02:31:43.865Z,1014.76
2023-01-21T02:32:44.140Z,1014.74
2023-01-21T02:33:43.823Z,1014.76
2023-01-21T02:34:43.818Z,1014.80
2023-01-21T02:35:43.794Z,1014.80
2023-01-21T02:36:43.819Z,1014.81
2023-01-21T02:37:43.769Z,1014.83
2023-01-21T02:38:43.793Z,1014.87
2023-01-21T02:39:43.752Z,1014.87
2023-01-21T02:40:43.751Z,1014.87
2023-01-21T02:41:43.761Z,1014.88
2023-01-21T02:42:43.755Z,1014.91
2023-01-21T02:43:43.710Z,1014.91
2023-01-21T02:44:43.715Z,1014.94
2023-01-21T02:45:43.687Z,1014.96
2023-01-21T02:46:43.779Z,1014.98
2023-01-21T02:47:43.683Z,1014.98
2023-01-21T02:48:43.667Z,1015.00
2023-01-21T02:49:43.666Z,1015.00
2023-01-21T02:50:43.827Z,1015.01
2023-01-21T02:51:43.672Z,1015.03
2023-01-21T02:52:43.626Z,1015.05
2023-01-21T02:53:43.647Z,1015.06
2023-01-21T02:54:43.612Z,1015.06
2023-01-21T02:55:43.670Z,1015.07
2023-01-21T02:56:43.616Z,1015.07
2023-01-21T02:57:43.605Z,1015.08
2023-01-21T02:58:43.594Z,1015.11
2023-01-21T02:59:43.548Z,1015.13
2023-01-21T03:00:43.658Z,1015.12
2023-01-21T03:01:43.557Z,1015.15
2023-01-21T03:02:43.536Z,1015.17
2023-01-21T03:03:43.513Z,1015.20
2023-01-21T03:04:43.527Z,1015.21
2023-01-21T03:05:43.492Z,1015.21
2023-01-21T03:06:43.491Z,1015.21
2023-01-21T03:07:43.473Z,1015.20
2023-01-21T03:08:43.478Z,1015.20
2023-01-21T03:09:43.493Z,1015.19
2023-01-21T03:10:43.467Z,1015.20
2023-01-21T03:11:43.431Z,1015.19
2023-01-21T03:12:43.465Z,1015.20
2023-01-21T03:13:43.438Z,1015.21
2023-01-21T03:14:43.421Z,1015.22
2023-01-21T03:15:43.409Z,1015.24
2023-01-21T03:16:43.395Z,1015.28
2023-01-21T03:17:43.384Z,1015.27
2023-01-21T03:18:43.392Z,1015.28
2023-01-21T03:19:43.392Z,1015.27
2023-01-21T03:20:43.398Z,1015.28
2023-01-21T03:21:43.364Z,1015.32
2023-01-21T03:22:43.377Z,1015.28
2023-01-21T03:23:43.319Z,1015.32
2023-01-21T03:24:43.335Z,1015.30
2023-01-21T03:25:43.308Z,1015.33
2023-01-21T03:26:43.295Z,1015.31
2023-01-21T03:27:43.282Z,1015.33
2023-01-21T03:28:43.277Z,1015.33
2023-01-21T03:29:43.264Z,1015.32
2023-01-21T03:30:43.304Z,1015.32
2023-01-21T03:31:43.331Z,1015.33
2023-01-21T03:32:43.232Z,1015.35
2023-01-21T03:33:45.775Z,1015.35
2023-01-21T03:34:43.246Z,1015.34
2023-01-21T03:35:43.199Z,1015.37
2023-01-21T03:36:43.204Z,1015.36
2023-01-21T03:37:43.182Z,1015.34
2023-01-21T03:38:43.183Z,1015.35
2023-01-21T03:39:43.193Z,1015.37
2023-01-21T03:40:43.168Z,1015.36
2023-01-21T03:41:43.140Z,1015.36
2023-01-21T03:42:43.143Z,1015.37
2023-01-21T03:43:43.122Z,1015.35
2023-01-21T03:44:43.147Z,1015.37
2023-01-21T03:45:43.105Z,1015.39
2023-01-21T03:46:43.115Z,1015.41
2023-01-21T03:47:43.080Z,1015.42
2023-01-21T03:48:43.089Z,1015.41
2023-01-21T03:49:43.088Z,1015.41
2023-01-21T03:50:43.077Z,1015.41
2023-01-21T03:51:43.097Z,1015.39
2023-01-21T03:52:43.051Z,1015.41
2023-01-21T03:53:43.045Z,1015.40
2023-01-21T03:54:43.059Z,1015.39
2023-01-21T03:55:43.044Z,1015.40
2023-01-21T03:56:43.020Z,1015.41
2023-01-21T03:57:43.010Z,1015.42
2023-01-21T03:58:42.969Z,1015.43
2023-01-21T03:59:42.997Z,1015.44
2023-01-21T04:00:43.005Z,1015.45
2023-01-21T04:01:42.961Z,1015.45
2023-01-21T04:02:42.931Z,1015.45
2023-01-21T04:03:42.929Z,1015.45
2023-01-21T04:04:42.925Z,1015.47
2023-01-21T04:05:42.943Z,1015.48
2023-01-21T04:06:42.919Z,1015.46
2023-01-21T04:07:42.900Z,1015.46
2023-01-21T04:08:42.875Z,1015.47
2023-01-21T04:09:42.895Z,1015.48
2023-01-21T04:10:42.879Z,1015.48
2023-01-21T04:11:42.864Z,1015.48
2023-01-21T04:12:42.835Z,1015.49
2023-01-21T04:13:42.831Z,1015.50
2023-01-21T04:14:42.814Z,1015.50
2023-01-21T04:15:42.844Z,1015.51
2023-01-21T04:16:42.895Z,1015.51
2023-01-21T04:17:42.781Z,1015.51
2023-01-21T04:18:42.788Z,1015.52
2023-01-21T04:19:42.795Z,1015.53
2023-01-21T04:20:42.779Z,1015.54
2023-01-21T04:21:42.777Z,1015.56
2023-01-21T04:22:42.745Z,1015.57
2023-01-21T04:23:42.758Z,1015.60
2023-01-21T04:24:42.717Z,1015.62
2023-01-21T04:25:42.718Z,1015.64
2023-01-21T04:26:42.697Z,1015.66
2023-01-21T04:27:42.711Z,1015.66
2023-01-21T04:28:42.680Z,1015.67
2023-01-21T04:29:42.708Z,1015.68
2023-01-21T04:30:42.708Z,1015.69
2023-01-21T04:31:43.562Z,1015.69
2023-01-21T04:32:42.649Z,1015.69
2023-01-21T04:33:42.639Z,1015.70
2023-01-21T04:34:42.611Z,1015.68
2023-01-21T04:35:42.618Z,1015.70
2023-01-21T04:36:42.593Z,1015.70
2023-01-21T04:37:42.600Z,1015.72
2023-01-21T04:38:42.617Z,1015.73
2023-01-21T04:39:42.574Z,1015.74
2023-01-21T04:40:42.565Z,1015.75
2023-01-21T04:41:42.545Z,1015.75
2023-01-21T04:42:42.538Z,1015.75
2023-01-21T04:43:42.549Z,1015.76
2023-01-21T04:44:42.523Z,1015.77
2023-01-21T04:45:42.564Z,1015.79
2023-01-21T04:46:42.490Z,1015.80
2023-01-21T04:47:42.549Z,1015.81
2023-01-21T04:48:42.476Z,1015.83
2023-01-21T04:49:42.502Z,1015.83
2023-01-21T04:50:42.509Z,1015.85
2023-01-21T04:51:42.474Z,1015.85
2023-01-21T04:52:42.446Z,1015.87
2023-01-21T04:53:42.439Z,1015.90
2023-01-21T04:54:42.406Z,1015.90
2023-01-21T04:55:42.421Z,1015.90
2023-01-21T04:56:42.420Z,1015.89
2023-01-21T04:57:42.396Z,1015.89
2023-01-21T04:58:42.427Z,1015.91
2023-01-21T04:59:42.380Z,1015.91
2023-01-21T05:00:42.384Z,1015.92
2023-01-21T05:01:42.361Z,1015.90
2023-01-21T05:02:42.346Z,1015.93
2023-01-21T05:03:42.337Z,1015.95
2023-01-21T05:04:42.329Z,1015.97
2023-01-21T05:05:42.641Z,1016.01
2023-01-21T05:06:42.320Z,1016.02
2023-01-21T05:07:42.300Z,1016.04
2023-01-21T05:08:42.282Z,1016.04
2023-01-21T05:09:42.304Z,1016.07
2023-01-21T05:10:42.257Z,1016.06
2023-01-21T05:11:42.267Z,1016.10
2023-01-21T05:12:42.267Z,1016.10
2023-01-21T05:13:42.230Z,1016.11
2023-01-21T05:14:42.217Z,1016.11
2023-01-21T05:15:42.269Z,1016.13
2023-01-21T05:16:42.227Z,1016.16
2023-01-21T05:17:42.232Z,1016.14
2023-01-21T05:18:42.182Z,1016.15
2023-01-21T05:19:42.203Z,1016.15
2023-01-21T05:20:42.187Z,1016.16
2023-01-21T05:21:42.183Z,1016.15
2023-01-21T05:22:42.149Z,1016.16
2023-01-21T05:23:42.155Z,1016.19
2023-01-21T05:24:42.112Z,1016.21
2023-01-21T05:25:42.112Z,1016.23
2023-01-21T05:26:42.112Z,1016.22
2023-01-21T05:27:42.093Z,1016.23
2023-01-21T05:28:42.090Z,1016.24
2023-01-21T05:29:42.084Z,1016.24
2023-01-21T05:30:44.447Z,1016.25
2023-01-21T05:31:42.220Z,1016.29
2023-01-21T05:32:42.040Z,1016.28
2023-01-21T05:33:42.051Z,1016.28
2023-01-21T05:34:42.026Z,1016.26
2023-01-21T05:35:42.017Z,1016.29
2023-01-21T05:36:42.055Z,1016.32
2023-01-21T05:37:42.003Z,1016.36
2023-01-21T05:38:41.978Z,1016.41
2023-01-21T05:39:41.980Z,1016.44
2023-01-21T05:40:41.948Z,1016.45
2023-01-21T05:41:41.948Z,1016.46
2023-01-21T05:42:41.961Z,1016.50
2023-01-21T05:43:41.936Z,1016.52
2023-01-21T05:44:41.944Z,1016.53
2023-01-21T05:45:41.917Z,1016.54
2023-01-21T05:46:41.913Z,1016.58
2023-01-21T05:47:41.927Z,1016.63
2023-01-21T05:48:41.891Z,1016.61
2023-01-21T05:49:41.873Z,1016.58
2023-01-21T05:50:41.887Z,1016.58
2023-01-21T05:51:41.888Z,1016.57
2023-01-21T05:52:41.854Z,1016.57
2023-01-21T05:53:41.868Z,1016.57
2023-01-21T05:54:52.441Z,1016.58
2023-01-21T05:55:41.825Z,1016.61
2023-01-21T05:56:41.801Z,1016.63
2023-01-21T05:57:41.796Z,1016.62
2023-01-21T05:58:41.862Z,1016.66
2023-01-21T05:59:41.814Z,1016.64
2023-01-21T06:00:41.759Z,1016.66
2023-01-21T06:01:41.790Z,1016.70
2023-01-21T06:02:41.796Z,1016.70
2023-01-21T06:03:41.773Z,1016.72
2023-01-21T06:04:41.754Z,1016.72
2023-01-21T06:05:41.775Z,1016.72
2023-01-21T06:06:41.946Z,1016.74
2023-01-21T06:07:41.703Z,1016.75
2023-01-21T06:08:41.695Z,1016.76
2023-01-21T06:09:41.690Z,1016.76
2023-01-21T06:10:41.687Z,1016.79
2023-01-21T06:11:41.666Z,1016.78
2023-01-21T06:12:41.648Z,1016.78
2023-01-21T06:13:41.643Z,1016.78
2023-01-21T06:14:41.650Z,1016.79
2023-01-21T06:15:41.666Z,1016.81
2023-01-21T06:16:41.629Z,1016.80
2023-01-21T06:17:41.595Z,1016.81
2023-01-21T06:18:41.596Z,1016.80
2023-01-21T06:19:41.589Z,1016.79
2023-01-21T06:20:41.579Z,1016.80
2023-01-21T06:21:43.657Z,1016.82
2023-01-21T06:22:41.576Z,1016.82
2023-01-21T06:23:41.561Z,1016.82
2023-01-21T06:24:41.538Z,1016.83
2023-01-21T06:25:41.530Z,1016.84
2023-01-21T06:26:41.525Z,1016.85
2023-01-21T06:27:41.525Z,1016.88
2023-01-21T06:28:41.493Z,1016.91
2023-01-21T06:29:41.502Z,1016.93
2023-01-21T06:30:41.481Z,1016.94
2023-01-21T06:31:41.613Z,1016.95
2023-01-21T06:32:41.487Z,1016.94
2023-01-21T06:33:41.455Z,1016.96
2023-01-21T06:34:41.439Z,1016.99
2023-01-21T06:35:41.424Z,1017.03
2023-01-21T06:36:41.440Z,1017.06
2023-01-21T06:37:42.250Z,1017.07
2023-01-21T06:38:41.452Z,1017.09
2023-01-21T06:39:41.396Z,1017.10
2023-01-21T06:40:41.400Z,1017.12
2023-01-21T06:41:41.380Z,1017.15
2023-01-21T06:42:41.361Z,1017.16
2023-01-21T06:43:41.347Z,1017.18
2023-01-21T06:44:41.328Z,1017.19
2023-01-21T06:45:41.329Z,1017.18
2023-01-21T06:46:45.960Z,1017.18
2023-01-21T06:47:41.346Z,1017.20
2023-01-21T06:48:41.314Z,1017.23
2023-01-21T06:49:41.274Z,1017.23
2023-01-21T06:50:41.302Z,1017.25
2023-01-21T06:51:41.277Z,1017.27
2023-01-21T06:52:41.264Z,1017.28
2023-01-21T06:53:41.266Z,1017.31
2023-01-21T06:54:41.242Z,1017.34
2023-01-21T06:55:41.239Z,1017.36
2023-01-21T06:56:41.209Z,1017.37
2023-01-21T06:57:42.475Z,1017.40
2023-01-21T06:58:41.191Z,1017.42
2023-01-21T06:59:41.140Z,1017.42
2023-01-21T07:00:41.135Z,1017.43
2023-01-21T07:01:41.241Z,1017.44
2023-01-21T07:02:41.221Z,1017.45
2023-01-21T07:03:41.094Z,1017.47
2023-01-21T07:04:41.115Z,1017.47
2023-01-21T07:05:41.112Z,1017.49
2023-01-21T07:06:41.070Z,1017.48
2023-01-21T07:07:41.054Z,1017.48
2023-01-21T07:08:41.062Z,1017.51
2023-01-21T07:09:41.048Z,1017.53
2023-01-21T07:10:41.035Z,1017.54
2023-01-21T07:11:41.025Z,1017.54
2023-01-21T07:12:41.005Z,1017.54
2023-01-21T07:13:41.020Z,1017.54
2023-01-21T07:14:40.984Z,1017.55
2023-01-21T07:15:41.063Z,1017.58
2023-01-21T07:16:40.969Z,1017.58
2023-01-21T07:17:40.948Z,1017.60
2023-01-21T07:18:40.948Z,1017.60
2023-01-21T07:19:40.975Z,1017.62
2023-01-21T07:20:41.027Z,1017.63
2023-01-21T07:21:40.958Z,1017.63
2023-01-21T07:22:40.940Z,1017.64
2023-01-21T07:23:40.897Z,1017.65
2023-01-21T07:24:40.890Z,1017.67
2023-01-21T07:25:41.054Z,1017.68
2023-01-21T07:26:40.863Z,1017.68
2023-01-21T07:27:40.991Z,1017.69
2023-01-21T07:28:40.826Z,1017.71
2023-01-21T07:29:40.836Z,1017.70
2023-01-21T07:30:40.867Z,1017.68
2023-01-21T07:31:40.884Z,1017.69
2023-01-21T07:32:40.804Z,1017.68
2023-01-21T07:33:40.780Z,1017.70
2023-01-21T07:34:40.761Z,1017.71
2023-01-21T07:35:40.791Z,1017.72
2023-01-21T07:36:40.744Z,1017.71
2023-01-21T07:37:40.747Z,1017.71
2023-01-21T07:38:40.736Z,1017.70
2023-01-21T07:39:40.767Z,1017.72
2023-01-21T07:40:40.775Z,1017.75
2023-01-21T07:41:40.707Z,1017.76
2023-01-21T07:42:40.698Z,1017.78
2023-01-21T07:43:40.677Z,1017.78
2023-01-21T07:44:40.684Z,1017.78
2023-01-21T07:45:40.686Z,1017.79
2023-01-21T07:46:40.697Z,1017.80
2023-01-21T07:47:40.674Z,1017.81
2023-01-21T07:48:40.641Z,1017.84
2023-01-21T07:49:40.621Z,1017.86
2023-01-21T07:50:40.602Z,1017.86
2023-01-21T07:51:40.637Z,1017.88
2023-01-21T07:52:40.603Z,1017.91
2023-01-21T07:53:40.603Z,1017.93
2023-01-21T07:54:40.557Z,1017.94
2023-01-21T07:55:40.595Z,1017.95
2023-01-21T07:56:40.539Z,1017.96
2023-01-21T07:57:40.558Z,1017.98
2023-01-21T07:58:40.551Z,1017.98
2023-01-21T07:59:40.523Z,1017.97
2023-01-21T08:00:40.508Z,1017.97
2023-01-21T08:01:40.570Z,1017.98
2023-01-21T08:02:40.518Z,1018.00
2023-01-21T08:03:40.496Z,1018.01
2023-01-21T08:04:40.452Z,1018.01
2023-01-21T08:05:40.469Z,1018.02
2023-01-21T08:06:40.442Z,1018.03
2023-01-21T08:07:40.431Z,1018.02
2023-01-21T08:08:40.418Z,1018.04
2023-01-21T08:09:40.429Z,1018.05
2023-01-21T08:10:40.392Z,1018.06
2023-01-21T08:11:40.401Z,1018.07
2023-01-21T08:12:40.371Z,1018.07
2023-01-21T08:13:40.373Z,1018.06
2023-01-21T08:14:40.359Z,1018.01
2023-01-21T08:15:40.367Z,1018.03
2023-01-21T08:16:40.451Z,1018.02
2023-01-21T08:17:40.383Z,1018.00
2023-01-21T08:18:40.326Z,1017.96
2023-01-21T08:19:40.299Z,1017.94
2023-01-21T08:20:40.359Z,1017.95
2023-01-21T08:21:40.383Z,1017.98
2023-01-21T08:22:40.287Z,1017.98
2023-01-21T08:23:40.310Z,1018.01
2023-01-21T08:24:40.302Z,1018.00
2023-01-21T08:25:40.241Z,1017.97
2023-01-21T08:26:40.248Z,1018.00
2023-01-21T08:27:40.243Z,1018.01
2023-01-21T08:28:40.231Z,1018.02
2023-01-21T08:29:40.194Z,1018.02
2023-01-21T08:30:40.225Z,1018.03
2023-01-21T08:31:40.238Z,1018.04
2023-01-21T08:32:40.250Z,1018.04
2023-01-21T08:33:40.165Z,1018.05
2023-01-21T08:34:40.159Z,1018.07
2023-01-21T08:35:40.133Z,1018.09
2023-01-21T08:36:40.161Z,1018.13
2023-01-21T08:37:40.114Z,1018.15
2023-01-21T08:38:40.139Z,1018.16
2023-01-21T08:39:40.099Z,1018.19
2023-01-21T08:40:40.147Z,1018.18
2023-01-21T08:41:40.086Z,1018.18
2023-01-21T08:42:40.091Z,1018.18
2023-01-21T08:43:40.050Z,1018.21
2023-01-21T08:44:40.062Z,1018.23
2023-01-21T08:45:40.092Z,1018.24
2023-01-21T08:46:40.047Z,1018.27
2023-01-21T08:47:40.044Z,1018.28
2023-01-21T08:48:40.019Z,1018.30
2023-01-21T08:49:39.997Z,1018.31
2023-01-21T08:50:39.998Z,1018.34
2023-01-21T08:51:39.977Z,1018.32
2023-01-21T08:52:39.962Z,1018.31
2023-01-21T08:53:39.970Z,1018.31
2023-01-21T08:54:39.947Z,1018.34
2023-01-21T08:55:39.932Z,1018.37
2023-01-21T08:56:39.942Z,1018.39
2023-01-21T08:57:39.914Z,1018.41
2023-01-21T08:58:39.942Z,1018.41
2023-01-21T08:59:39.900Z,1018.43
2023-01-21T09:00:39.908Z,1018.45
2023-01-21T09:01:39.871Z,1018.45
2023-01-21T09:02:39.873Z,1018.47
2023-01-21T09:03:39.853Z,1018.48
2023-01-21T09:04:39.859Z,1018.49
2023-01-21T09:05:39.823Z,1018.51
2023-01-21T09:06:39.846Z,1018.53
2023-01-21T09:07:39.840Z,1018.56
2023-01-21T09:08:39.825Z,1018.57
2023-01-21T09:09:39.829Z,1018.59
2023-01-21T09:10:39.797Z,1018.61
2023-01-21T09:11:39.826Z,1018.62
2023-01-21T09:12:39.786Z,1018.65
2023-01-21T09:13:39.748Z,1018.67
2023-01-21T09:14:39.828Z,1018.70
2023-01-21T09:15:39.730Z,1018.70
2023-01-21T09:16:39.768Z,1018.74
2023-01-21T09:17:39.715Z,1018.76
2023-01-21T09:18:39.743Z,1018.75
2023-01-21T09:19:39.695Z,1018.76
2023-01-21T09:20:39.742Z,1018.76
2023-01-21T09:21:39.686Z,1018.79
2023-01-21T09:22:39.675Z,1018.80
2023-01-21T09:23:39.677Z,1018.82
2023-01-21T09:24:39.652Z,1018.84
2023-01-21T09:25:39.687Z,1018.80
2023-01-21T09:26:39.669Z,1018.84
2023-01-21T09:27:39.600Z,1018.84
2023-01-21T09:28:39.651Z,1018.85
2023-01-21T09:29:39.635Z,1018.89
2023-01-21T09:30:39.631Z,1018.88
2023-01-21T09:31:39.601Z,1018.93
2023-01-21T09:32:39.586Z,1018.98
2023-01-21T09:33:39.563Z,1018.97
2023-01-21T09:34:39.574Z,1018.94
2023-01-21T09:35:39.518Z,1018.97
2023-01-21T09:36:39.528Z,1018.98
2023-01-21T09:37:39.542Z,1018.99
2023-01-21T09:38:39.504Z,1018.99
2023-01-21T09:39:39.512Z,1018.98
2023-01-21T09:40:39.490Z,1018.99
2023-01-21T09:41:39.508Z,1018.96
2023-01-21T09:42:39.469Z,1018.98
2023-01-21T09:43:39.449Z,1018.97
2023-01-21T09:44:39.438Z,1018.99
2023-01-21T09:45:39.978Z,1019.01
2023-01-21T09:46:39.438Z,1019.03
2023-01-21T09:47:39.412Z,1019.01
2023-01-21T09:48:39.404Z,1019.04
2023-01-21T09:49:39.405Z,1019.03
2023-01-21T09:50:39.393Z,1019.05
2023-01-21T09:51:39.367Z,1019.05
2023-01-21T09:52:39.359Z,1019.05
2023-01-21T09:53:39.371Z,1019.05
2023-01-21T09:54:39.343Z,1019.06
2023-01-21T09:55:39.342Z,1019.09
2023-01-21T09:56:39.337Z,1019.11
2023-01-21T09:57:39.306Z,1019.13
2023-01-21T09:58:39.297Z,1019.12
2023-01-21T09:59:39.281Z,1019.13
2023-01-21T10:00:39.346Z,1019.13
2023-01-21T10:01:39.416Z,1019.13
2023-01-21T10:02:39.264Z,1019.14
2023-01-21T10:03:39.265Z,1019.15
2023-01-21T10:04:39.390Z,1019.16
2023-01-21T10:05:39.218Z,1019.15
2023-01-21T10:06:39.302Z,1019.15
2023-01-21T10:07:39.193Z,1019.16
2023-01-21T10:08:39.220Z,1019.21
2023-01-21T10:09:39.192Z,1019.21
2023-01-21T10:10:39.186Z,1019.22
2023-01-21T10:11:39.200Z,1019.21
2023-01-21T10:12:39.173Z,1019.22
2023-01-21T10:13:39.249Z,1019.21
2023-01-21T10:14:39.135Z,1019.21
2023-01-21T10:15:39.760Z,1019.22
2023-01-21T10:16:39.780Z,1019.23
2023-01-21T10:17:39.204Z,1019.24
2023-01-21T10:18:39.284Z,1019.24
2023-01-21T10:19:39.183Z,1019.23
2023-01-21T10:20:39.188Z,1019.24
2023-01-21T10:21:39.243Z,1019.23
2023-01-21T10:22:39.182Z,1019.22
2023-01-21T10:23:39.519Z,1019.21
2023-01-21T10:24:39.042Z,1019.19
2023-01-21T10:25:39.054Z,1019.18
2023-01-21T10:26:39.060Z,1019.17
2023-01-21T10:27:39.010Z,1019.18
2023-01-21T10:28:39.013Z,1019.16
2023-01-21T10:29:39.013Z,1019.22
2023-01-21T10:30:40.367Z,1019.23
2023-01-21T10:31:39.155Z,1019.24
2023-01-21T10:32:38.956Z,1019.23
2023-01-21T10:33:38.938Z,1019.22
2023-01-21T10:34:39.212Z,1019.23
2023-01-21T10:35:39.315Z,1019.23
2023-01-21T10:36:38.907Z,1019.25
2023-01-21T10:37:38.903Z,1019.29
2023-01-21T10:38:38.911Z,1019.28
2023-01-21T10:39:38.875Z,1019.26
2023-01-21T10:40:38.890Z,1019.25
2023-01-21T10:41:38.864Z,1019.27
2023-01-21T10:42:38.874Z,1019.27
2023-01-21T10:43:38.871Z,1019.29
2023-01-21T10:44:38.832Z,1019.29
2023-01-21T10:45:38.883Z,1019.28
2023-01-21T10:46:38.888Z,1019.26
2023-01-21T10:47:38.869Z,1019.25
2023-01-21T10:48:38.807Z,1019.27
2023-01-21T10:49:38.773Z,1019.28
2023-01-21T10:50:38.866Z,1019.27
2023-01-21T10:51:38.772Z,1019.27
2023-01-21T10:52:38.777Z,1019.27
2023-01-21T10:53:38.753Z,1019.28
2023-01-21T10:54:38.736Z,1019.27
2023-01-21T10:55:38.719Z,1019.28
2023-01-21T10:56:38.751Z,1019.30
2023-01-21T10:57:38.764Z,1019.30
2023-01-21T10:58:39.214Z,1019.31
2023-01-21T10:59:38.683Z,1019.31
2023-01-21T11:00:38.750Z,1019.33
2023-01-21T11:01:38.722Z,1019.33
2023-01-21T11:02:38.728Z,1019.32
2023-01-21T11:03:38.667Z,1019.31
2023-01-21T11:04:38.750Z,1019.28
2023-01-21T11:05:38.776Z,1019.29
2023-01-21T11:06:38.639Z,1019.28
2023-01-21T11:07:38.621Z,1019.29
2023-01-21T11:08:38.709Z,1019.29
2023-01-21T11:09:38.609Z,1019.28
2023-01-21T11:10:38.658Z,1019.27
2023-01-21T11:15:13.446Z,1019.30
2023-01-21T11:16:14.488Z,1019.29
2023-01-21T11:17:14.165Z,1019.28
2023-01-21T11:18:14.201Z,1019.25
2023-01-21T11:19:14.098Z,1019.23
2023-01-21T11:20:14.058Z,1019.20
2023-01-21T11:25:58.350Z,1019.22
2023-01-21T11:26:59.385Z,1019.22
2023-01-21T11:27:59.326Z,1019.19
2023-01-21T11:28:59.337Z,1019.19
2023-01-21T11:29:59.329Z,1019.19
2023-01-21T11:30:59.444Z,1019.18
2023-01-21T11:31:59.459Z,1019.17
2023-01-21T11:32:59.519Z,1019.19
2023-01-21T11:33:59.267Z,1019.19
2023-01-21T11:34:59.284Z,1019.19
2023-01-21T11:35:59.272Z,1019.20
2023-01-21T11:36:59.286Z,1019.17
2023-01-21T11:37:59.288Z,1019.15
2023-01-21T11:38:59.245Z,1019.13
2023-01-21T11:39:59.359Z,1019.11
2023-01-21T11:40:59.195Z,1019.09
2023-01-21T11:41:59.217Z,1019.09
2023-01-21T11:42:59.178Z,1019.09
2023-01-21T11:43:59.179Z,1019.10
2023-01-21T11:44:59.158Z,1019.11
2023-01-21T11:45:59.164Z,1019.12
2023-01-21T11:46:59.158Z,1019.13
2023-01-21T11:47:59.142Z,1019.14
2023-01-21T11:48:59.428Z,1019.16
2023-01-21T11:49:59.175Z,1019.16
2023-01-21T11:50:59.145Z,1019.13
2023-01-21T11:51:59.073Z,1019.12
2023-01-21T11:53:01.818Z,1019.13
2023-01-21T11:53:59.051Z,1019.11
2023-01-21T11:54:59.057Z,1019.14
2023-01-21T11:55:59.041Z,1019.15
2023-01-21T11:56:59.060Z,1019.16
2023-01-21T11:57:59.014Z,1019.16
2023-01-21T11:58:59.020Z,1019.15
2023-01-21T11:59:59.071Z,1019.16
2023-01-21T12:00:58.994Z,1019.16
2023-01-21T12:01:58.973Z,1019.17
2023-01-21T12:02:59.046Z,1019.19
2023-01-21T12:03:59.029Z,1019.19
2023-01-21T12:04:58.942Z,1019.19
2023-01-21T12:05:58.918Z,1019.18
2023-01-21T12:06:58.927Z,1019.19
2023-01-21T12:07:58.912Z,1019.17
2023-01-21T12:08:58.901Z,1019.15
2023-01-21T12:09:58.891Z,1019.15
2023-01-21T12:10:58.899Z,1019.14
2023-01-21T12:11:58.870Z,1019.16
2023-01-21T12:12:58.887Z,1019.14
2023-01-21T12:13:58.870Z,1019.15